Time;durP1;ratioP1;P1;durP2;ratioP2;P2;SDS_P1;SDS_P2;PMS_P1;PMS_P2;Temp;Humidity;BMP_temperature;BMP_pressure;BME280_temperature;BME280_humidity;BME280_pressure;Samples;Min_cycle;Max_cycle;Signal;HPM_P1;HPM_P2
2023/06/06 00:01:23;;;;;;;9.00;5.38;;;17.60;59.20;;;;;;5014752;28;20047;-71
2023/06/06 00:03:48;;;;;;;11.15;6.07;;;17.60;59.20;;;;;;5031285;28;20113;-71
2023/06/06 00:06:20;;;;;;;9.80;5.53;;;17.50;59.20;;;;;;5033706;28;20116;-71
2023/06/06 00:08:47;;;;;;;10.95;6.07;;;17.50;59.30;;;;;;5033926;28;20037;-71
2023/06/06 00:11:13;;;;;;;12.07;5.68;;;17.50;59.30;;;;;;5026383;28;20029;-71
2023/06/06 00:13:40;;;;;;;10.10;6.18;;;17.50;59.40;;;;;;5027226;28;20041;-71
2023/06/06 00:16:06;;;;;;;9.75;5.65;;;17.40;59.40;;;;;;5031321;28;20470;-71
2023/06/06 00:18:32;;;;;;;8.65;5.45;;;17.40;59.40;;;;;;5029640;28;20030;-71
2023/06/06 00:20:58;;;;;;;9.68;5.82;;;17.30;59.50;;;;;;5028433;28;20030;-71
2023/06/06 00:23:24;;;;;;;10.63;5.45;;;17.30;59.60;;;;;;5028276;28;20365;-71
2023/06/06 00:25:52;;;;;;;10.85;5.30;;;17.20;59.70;;;;;;5027286;28;20112;-71
2023/06/06 00:28:18;;;;;;;11.48;5.32;;;17.20;59.80;;;;;;5035018;28;20438;-71
2023/06/06 00:30:44;;;;;;;10.90;5.50;;;17.20;59.80;;;;;;5022495;28;20032;-71
2023/06/06 00:33:10;;;;;;;9.88;5.75;;;17.10;59.80;;;;;;5019299;28;21692;-71
2023/06/06 00:35:36;;;;;;;9.65;5.72;;;17.10;59.80;;;;;;5007092;28;20454;-71
2023/06/06 00:38:02;;;;;;;10.32;5.82;;;17.10;59.80;;;;;;5030278;28;20034;-71
2023/06/06 00:40:27;;;;;;;10.23;5.75;;;17.10;59.90;;;;;;5023078;28;20029;-71
2023/06/06 00:42:53;;;;;;;9.57;6.10;;;17.00;59.90;;;;;;5029371;28;20026;-71
2023/06/06 00:45:19;;;;;;;10.27;5.57;;;17.00;60.00;;;;;;5024097;28;20537;-71
2023/06/06 00:47:45;;;;;;;10.43;5.72;;;17.00;60.00;;;;;;5032396;28;20028;-71
2023/06/06 00:50:12;;;;;;;9.55;5.55;;;17.00;60.10;;;;;;5007391;28;20040;-71
2023/06/06 00:52:46;;;;;;;9.95;5.82;;;16.90;60.10;;;;;;5022441;28;20072;-71
2023/06/06 00:55:15;;;;;;;10.80;5.72;;;16.90;60.20;;;;;;5042083;28;20032;-71
2023/06/06 00:57:43;;;;;;;9.38;5.60;;;16.90;60.20;;;;;;5031875;28;20034;-71
2023/06/06 01:00:10;;;;;;;8.38;5.10;;;16.90;60.30;;;;;;5010395;28;20575;-71
2023/06/06 01:02:37;;;;;;;8.73;5.68;;;16.90;60.30;;;;;;5023699;28;20046;-71
2023/06/06 01:05:11;;;;;;;10.07;6.00;;;16.80;60.30;;;;;;5029353;28;20033;-71
2023/06/06 01:07:37;;;;;;;10.40;5.72;;;16.80;60.40;;;;;;5019119;28;20033;-71
2023/06/06 01:10:06;;;;;;;10.40;5.60;;;16.70;60.40;;;;;;5030251;28;20021;-71
2023/06/06 01:12:37;;;;;;;9.93;5.50;;;16.80;60.50;;;;;;5033528;28;20071;-71
2023/06/06 01:15:17;;;;;;;9.13;5.25;;;16.70;60.50;;;;;;5012803;28;20091;-71
2023/06/06 01:17:46;;;;;;;10.18;5.20;;;16.70;60.50;;;;;;5015683;28;20469;-71
2023/06/06 01:20:12;;;;;;;10.88;5.63;;;16.60;60.60;;;;;;5025486;28;20061;-71
2023/06/06 01:22:39;;;;;;;10.52;5.45;;;16.60;60.60;;;;;;5029662;28;20422;-71
2023/06/06 01:25:06;;;;;;;9.90;5.60;;;16.60;60.70;;;;;;5027453;28;20060;-71
2023/06/06 01:27:33;;;;;;;9.93;5.00;;;16.60;60.70;;;;;;5030313;28;20116;-71
2023/06/06 01:30:01;;;;;;;10.63;6.15;;;16.60;60.80;;;;;;5029616;28;20446;-71
2023/06/06 01:32:45;;;;;;;9.73;5.72;;;16.50;60.80;;;;;;5031808;28;20025;-71
2023/06/06 01:35:40;;;;;;;10.15;5.60;;;16.50;60.80;;;;;;5031545;28;20033;-71
2023/06/06 01:38:31;;;;;;;8.82;5.15;;;16.50;60.80;;;;;;5013012;28;20585;-71
2023/06/06 01:41:01;;;;;;;10.20;5.43;;;16.40;60.90;;;;;;5030259;28;20033;-71
2023/06/06 01:43:30;;;;;;;10.57;5.43;;;16.40;61.00;;;;;;5020382;28;20032;-71
2023/06/06 01:45:56;;;;;;;10.80;5.57;;;16.40;61.00;;;;;;5030006;28;20033;-71
2023/06/06 01:48:23;;;;;;;10.38;5.75;;;16.30;61.00;;;;;;5030991;28;20469;-71
2023/06/06 01:50:50;;;;;;;10.13;4.88;;;16.30;61.10;;;;;;5031268;28;20124;-71
2023/06/06 01:53:16;;;;;;;8.85;5.43;;;16.30;61.20;;;;;;5032667;28;20022;-71
2023/06/06 01:55:42;;;;;;;10.32;5.68;;;16.30;61.20;;;;;;5030801;28;20111;-70
2023/06/06 01:58:08;;;;;;;12.38;5.70;;;16.30;61.20;;;;;;5029671;28;20340;-70
2023/06/06 02:00:34;;;;;;;10.80;5.57;;;16.30;61.20;;;;;;5031687;28;20021;-71
2023/06/06 02:03:02;;;;;;;12.60;5.75;;;16.30;61.30;;;;;;5019539;28;20046;-71
2023/06/06 02:05:27;;;;;;;9.55;5.32;;;16.30;62.00;;;;;;5030854;28;20022;-71
2023/06/06 02:07:53;;;;;;;9.68;5.18;;;16.30;61.30;;;;;;5013644;28;20462;-71
2023/06/06 02:10:20;;;;;;;11.75;5.53;;;16.30;61.30;;;;;;5030052;28;20446;-71
2023/06/06 02:12:45;;;;;;;8.80;5.13;;;16.30;61.40;;;;;;5028095;28;20037;-71
2023/06/06 02:15:13;;;;;;;9.77;4.65;;;16.20;61.40;;;;;;5028005;28;20457;-71
2023/06/06 02:17:39;;;;;;;10.98;5.28;;;16.20;61.50;;;;;;5027673;28;20032;-71
2023/06/06 02:20:07;;;;;;;10.05;5.53;;;16.20;61.60;;;;;;5032944;28;20375;-71
2023/06/06 02:22:33;;;;;;;10.75;5.30;;;16.10;61.50;;;;;;5028301;28;20034;-71
2023/06/06 02:24:59;;;;;;;9.75;5.63;;;16.10;61.60;;;;;;5032283;28;20022;-71
2023/06/06 02:27:26;;;;;;;10.63;5.18;;;16.10;61.70;;;;;;5020727;28;20129;-71
2023/06/06 02:29:51;;;;;;;11.43;5.50;;;16.10;61.80;;;;;;5007543;28;20112;-70
2023/06/06 02:32:17;;;;;;;10.20;5.60;;;16.10;61.90;;;;;;5028919;28;20454;-70
2023/06/06 02:34:43;;;;;;;12.48;6.30;;;16.10;61.90;;;;;;5024865;28;20025;-71
2023/06/06 02:37:09;;;;;;;10.15;5.40;;;16.10;62.00;;;;;;5024869;28;20040;-71
2023/06/06 02:39:35;;;;;;;9.95;5.43;;;16.00;62.00;;;;;;5031743;28;20116;-71
2023/06/06 02:42:03;;;;;;;9.65;5.85;;;16.00;62.10;;;;;;5024154;28;20397;-71
2023/06/06 02:44:30;;;;;;;10.73;5.47;;;16.00;62.20;;;;;;5026931;28;20033;-71
2023/06/06 02:46:57;;;;;;;10.82;5.95;;;16.00;62.30;;;;;;5023950;28;20049;-71
2023/06/06 02:49:23;;;;;;;9.77;5.90;;;15.90;62.30;;;;;;5023362;28;20044;-71
2023/06/06 02:51:49;;;;;;;10.75;5.72;;;15.90;62.40;;;;;;5030961;28;20136;-71
2023/06/06 02:54:16;;;;;;;11.63;6.53;;;15.90;62.50;;;;;;5032342;28;20021;-71
2023/06/06 02:56:41;;;;;;;9.25;5.90;;;15.90;62.60;;;;;;5029689;28;20033;-71
2023/06/06 02:59:07;;;;;;;12.35;5.90;;;15.80;62.60;;;;;;5029920;28;20037;-71
2023/06/06 03:01:35;;;;;;;14.48;5.93;;;15.80;62.70;;;;;;5024525;28;20033;-71
2023/06/06 03:04:01;;;;;;;10.82;6.13;;;15.80;62.70;;;;;;5030826;28;20033;-71
2023/06/06 03:06:28;;;;;;;11.25;6.80;;;15.80;62.80;;;;;;5024579;28;20462;-71
2023/06/06 03:08:57;;;;;;;10.75;6.10;;;15.80;62.80;;;;;;5015901;28;20137;-71
2023/06/06 03:11:25;;;;;;;11.52;6.38;;;15.80;62.90;;;;;;5027025;28;20033;-71
2023/06/06 03:13:51;;;;;;;9.10;5.72;;;15.70;62.90;;;;;;5034848;28;20040;-71
2023/06/06 03:16:17;;;;;;;10.15;6.20;;;15.70;63.00;;;;;;5022938;28;20115;-71
2023/06/06 03:18:46;;;;;;;11.30;6.18;;;15.70;63.10;;;;;;5031732;28;20041;-71
2023/06/06 03:21:14;;;;;;;10.88;5.97;;;15.70;63.10;;;;;;5028265;28;20439;-71
2023/06/06 03:23:43;;;;;;;10.00;5.55;;;15.70;63.20;;;;;;5018049;28;20037;-71
2023/06/06 03:26:09;;;;;;;10.85;6.28;;;15.70;63.30;;;;;;5018008;28;20033;-71
2023/06/06 03:28:35;;;;;;;11.20;6.38;;;15.60;63.30;;;;;;5015012;28;20386;-71
2023/06/06 03:31:07;;;;;;;10.95;5.85;;;15.60;63.40;;;;;;5026681;28;20414;-71
2023/06/06 03:33:41;;;;;;;10.95;5.72;;;15.60;63.50;;;;;;5030570;28;20120;-71
2023/06/06 03:36:07;;;;;;;10.63;5.95;;;15.60;63.50;;;;;;5028737;28;20425;-71
2023/06/06 03:38:34;;;;;;;10.80;6.35;;;15.60;63.50;;;;;;5032473;28;20025;-71
2023/06/06 03:41:02;;;;;;;12.43;5.85;;;15.60;63.60;;;;;;5027609;28;20026;-71
2023/06/06 03:43:30;;;;;;;12.82;6.00;;;15.60;63.60;;;;;;5011831;28;20024;-71
2023/06/06 03:45:57;;;;;;;11.93;6.15;;;15.50;63.70;;;;;;5012812;28;20421;-71
2023/06/06 03:48:23;;;;;;;11.52;6.28;;;15.50;63.80;;;;;;5032234;28;20037;-71
2023/06/06 03:50:49;;;;;;;9.52;5.45;;;15.50;63.90;;;;;;5032709;28;20048;-71
2023/06/06 03:53:16;;;;;;;10.45;5.68;;;15.50;64.00;;;;;;5011287;28;20462;-71
2023/06/06 03:55:44;;;;;;;10.93;6.13;;;15.50;63.90;;;;;;5033912;28;20104;-71
2023/06/06 03:58:10;;;;;;;11.50;5.80;;;15.50;63.90;;;;;;5033770;28;20032;-71
2023/06/06 04:00:39;;;;;;;9.13;5.78;;;15.50;64.00;;;;;;5031411;28;20025;-71
2023/06/06 04:03:05;;;;;;;11.70;6.18;;;15.50;64.00;;;;;;5031701;28;20041;-70
2023/06/06 04:05:32;;;;;;;10.90;6.03;;;15.50;64.10;;;;;;5034701;28;20350;-71
2023/06/06 04:08:01;;;;;;;10.63;6.18;;;15.50;64.10;;;;;;5032584;28;20029;-71
2023/06/06 04:10:27;;;;;;;10.15;5.80;;;15.50;64.10;;;;;;5031895;28;20025;-71
2023/06/06 04:12:53;;;;;;;12.25;6.47;;;15.60;64.10;;;;;;5025880;28;20029;-71
2023/06/06 04:15:19;;;;;;;10.43;5.75;;;15.50;64.10;;;;;;5033300;28;20021;-71
2023/06/06 04:17:45;;;;;;;13.20;6.03;;;15.60;64.10;;;;;;5033707;28;20048;-70
2023/06/06 04:20:11;;;;;;;11.40;6.53;;;15.60;64.10;;;;;;5027712;28;20029;-71
2023/06/06 04:22:38;;;;;;;11.43;6.03;;;15.60;64.10;;;;;;5028305;28;20026;-71
2023/06/06 04:25:05;;;;;;;12.57;6.40;;;15.60;64.20;;;;;;5009632;28;20318;-71
2023/06/06 04:27:31;;;;;;;11.45;5.47;;;15.60;64.20;;;;;;5017855;28;20033;-71
2023/06/06 04:30:01;;;;;;;12.07;6.47;;;15.60;64.20;;;;;;5016408;28;20084;-71
2023/06/06 04:32:26;;;;;;;11.55;5.82;;;15.60;64.10;;;;;;5015970;28;20059;-71
2023/06/06 04:34:57;;;;;;;11.30;5.93;;;15.70;64.20;;;;;;5029652;28;20041;-71
2023/06/06 04:37:24;;;;;;;;;;;15.70;64.20;;;;;;5034595;28;20116;-71
2023/06/06 04:39:53;;;;;;;10.85;5.15;;;15.70;64.10;;;;;;5033648;28;19915;-71
2023/06/06 04:42:21;;;;;;;11.18;5.60;;;15.70;64.10;;;;;;5017050;28;20033;-71
2023/06/06 04:44:46;;;;;;;10.38;5.30;;;15.70;64.10;;;;;;5026359;28;20032;-71
2023/06/06 04:47:14;;;;;;;10.88;5.07;;;15.70;64.10;;;;;;5032191;28;20116;-70
2023/06/06 04:49:40;;;;;;;10.63;5.95;;;15.70;64.10;;;;;;5030100;28;20028;-71
2023/06/06 04:52:08;;;;;;;10.93;5.57;;;15.70;64.20;;;;;;5027968;28;20101;-71
2023/06/06 04:54:38;;;;;;;10.98;5.30;;;15.80;64.10;;;;;;5022694;28;20033;-71
2023/06/06 04:57:06;;;;;;;10.80;5.70;;;15.80;64.10;;;;;;5020066;28;20458;-71
2023/06/06 04:59:33;;;;;;;9.48;5.07;;;15.80;64.10;;;;;;5031719;28;20033;-70
2023/06/06 05:02:01;;;;;;;10.63;5.75;;;15.90;64.10;;;;;;5031094;28;21585;-71
2023/06/06 05:04:29;;;;;;;11.45;5.65;;;15.90;64.00;;;;;;5027036;28;20025;-71
2023/06/06 05:06:56;;;;;;;9.93;5.40;;;16.00;63.90;;;;;;5032346;28;20053;-71
2023/06/06 05:09:21;;;;;;;10.55;5.13;;;16.00;63.90;;;;;;5033651;28;20120;-71
2023/06/06 05:11:51;;;;;;;9.75;5.32;;;16.10;63.80;;;;;;5032804;28;20462;-71
2023/06/06 05:14:18;;;;;;;10.07;5.30;;;16.10;63.50;;;;;;5030330;28;20090;-71
2023/06/06 05:16:47;;;;;;;10.40;5.97;;;16.30;63.40;;;;;;5025476;28;20033;-71
2023/06/06 05:19:15;;;;;;;11.65;5.53;;;16.40;63.20;;;;;;5032374;28;20412;-71
2023/06/06 05:21:41;;;;;;;9.75;5.07;;;16.50;63.00;;;;;;5028277;28;20045;-71
2023/06/06 05:24:07;;;;;;;8.32;4.53;;;16.70;62.70;;;;;;5031062;28;20036;-71
2023/06/06 05:26:33;;;;;;;10.45;5.55;;;16.80;62.40;;;;;;5026206;28;20026;-72
2023/06/06 05:29:00;;;;;;;9.05;4.57;;;16.90;62.10;;;;;;5013349;28;20034;-72
2023/06/06 05:31:26;;;;;;;10.35;4.80;;;17.00;61.80;;;;;;5029402;28;20036;-72
2023/06/06 05:33:53;;;;;;;9.27;5.13;;;17.10;61.60;;;;;;5017301;28;20454;-72
2023/06/06 05:36:20;;;;;;;9.52;5.50;;;17.20;61.40;;;;;;5027549;28;20066;-72
2023/06/06 05:38:46;;;;;;;11.85;5.55;;;17.30;61.30;;;;;;5023463;28;20120;-72
2023/06/06 05:41:12;;;;;;;10.85;5.20;;;17.30;61.10;;;;;;5027545;28;20105;-71
2023/06/06 05:43:38;;;;;;;10.07;5.43;;;17.40;60.90;;;;;;5016687;28;20417;-71
2023/06/06 05:46:04;;;;;;;9.82;5.70;;;17.50;60.70;;;;;;5023230;28;20112;-71
2023/06/06 05:48:31;;;;;;;10.15;5.47;;;17.50;60.50;;;;;;5031328;28;20343;-71
2023/06/06 05:50:57;;;;;;;9.85;5.22;;;17.50;60.30;;;;;;5030206;28;20136;-71
2023/06/06 05:53:24;;;;;;;9.13;5.15;;;17.60;60.20;;;;;;5028604;28;20021;-71
2023/06/06 05:55:50;;;;;;;9.55;5.15;;;17.70;60.10;;;;;;5030737;28;20041;-72
2023/06/06 05:58:16;;;;;;;12.68;5.40;;;17.70;59.90;;;;;;5026834;28;20100;-72
2023/06/06 06:00:42;;;;;;;9.50;4.97;;;17.80;59.70;;;;;;5029464;28;20235;-69
2023/06/06 06:03:10;;;;;;;11.23;5.85;;;17.90;59.50;;;;;;5030344;28;20139;-69
2023/06/06 06:05:36;;;;;;;10.25;4.78;;;18.00;59.40;;;;;;5033060;28;20025;-70
2023/06/06 06:08:04;;;;;;;9.30;4.72;;;18.10;59.20;;;;;;5028964;28;20433;-70
2023/06/06 06:10:35;;;;;;;10.07;4.88;;;18.20;59.10;;;;;;5033819;28;20026;-71
2023/06/06 06:13:01;;;;;;;;;;;18.30;58.80;;;;;;5024169;28;20033;-71
2023/06/06 06:15:30;;;;;;;11.00;4.80;;;18.40;58.80;;;;;;5028772;28;20011;-71
2023/06/06 06:17:56;;;;;;;9.27;4.63;;;18.50;58.60;;;;;;5023367;28;20447;-70
2023/06/06 06:20:22;;;;;;;8.85;4.97;;;18.50;58.30;;;;;;5026841;28;20045;-71
2023/06/06 06:22:48;;;;;;;9.40;4.85;;;18.60;58.20;;;;;;5031232;28;20025;-70
2023/06/06 06:25:16;;;;;;;9.45;4.97;;;18.80;58.00;;;;;;5016271;28;20021;-71
2023/06/06 06:27:43;;;;;;;8.68;4.55;;;18.80;57.60;;;;;;5031531;28;20029;-71
2023/06/06 06:30:09;;;;;;;9.25;4.53;;;19.00;57.60;;;;;;5015614;28;20037;-71
2023/06/06 06:32:37;;;;;;;8.40;4.35;;;19.10;57.40;;;;;;5024105;28;20050;-71
2023/06/06 06:35:04;;;;;;;8.82;4.82;;;19.20;57.20;;;;;;5029964;28;20343;-70
2023/06/06 06:37:32;;;;;;;9.43;4.25;;;19.30;57.00;;;;;;5030871;28;20121;-70
2023/06/06 06:39:58;;;;;;;7.85;4.20;;;19.50;56.90;;;;;;5031930;28;20040;-70
2023/06/06 06:42:25;;;;;;;11.43;6.10;;;19.60;56.40;;;;;;5033224;28;20017;-71
2023/06/06 06:45:06;;;;;;;11.52;5.13;;;19.70;56.20;;;;;;5036736;28;20021;-70
2023/06/06 06:47:32;;;;;;;9.27;4.75;;;19.80;55.90;;;;;;5032743;28;20045;-70
2023/06/06 06:49:58;;;;;;;9.55;5.15;;;20.00;55.70;;;;;;5011294;28;20026;-70
2023/06/06 06:52:23;;;;;;;9.18;4.30;;;20.10;55.50;;;;;;5032578;28;20089;-70
2023/06/06 06:54:54;;;;;;;9.20;4.65;;;20.20;55.20;;;;;;5032638;28;20029;-70
2023/06/06 06:57:26;;;;;;;10.18;5.20;;;20.30;55.10;;;;;;5029407;28;20040;-70
2023/06/06 06:59:59;;;;;;;10.05;5.00;;;20.50;54.80;;;;;;5027913;28;20120;-71
2023/06/06 07:02:27;;;;;;;8.60;4.82;;;20.70;54.50;;;;;;5025176;28;20034;-70
2023/06/06 07:04:59;;;;;;;10.75;5.05;;;20.70;54.30;;;;;;5013888;28;20025;-69
2023/06/06 07:07:25;;;;;;;8.23;4.55;;;20.90;53.90;;;;;;5016867;28;20130;-68
2023/06/06 07:09:51;;;;;;;9.18;4.60;;;21.00;53.70;;;;;;5008440;28;20036;-69
2023/06/06 07:12:17;;;;;;;8.50;4.82;;;21.10;53.40;;;;;;5024377;28;20034;-69
2023/06/06 07:14:43;;;;;;;10.48;4.88;;;21.20;53.20;;;;;;5033106;28;20033;-68
2023/06/06 07:17:09;;;;;;;8.65;3.95;;;21.30;52.90;;;;;;5032322;28;20056;-69
2023/06/06 07:19:36;;;;;;;9.02;4.80;;;21.40;52.50;;;;;;5031511;28;20024;-68
2023/06/06 07:22:05;;;;;;;10.13;4.28;;;21.50;52.40;;;;;;5011512;28;20029;-68
2023/06/06 07:24:32;;;;;;;9.23;4.40;;;21.60;52.10;;;;;;5032274;28;20025;-68
2023/06/06 07:26:59;;;;;;;9.07;4.18;;;21.80;52.10;;;;;;5033002;28;20025;-70
2023/06/06 07:29:26;;;;;;;9.38;4.18;;;21.90;51.90;;;;;;5034533;28;20075;-71
2023/06/06 07:31:54;;;;;;;10.30;4.57;;;22.10;51.60;;;;;;5035653;28;20041;-70
2023/06/06 07:34:21;;;;;;;8.32;4.45;;;22.20;51.40;;;;;;5033362;28;20044;-70
2023/06/06 07:36:47;;;;;;;9.65;4.13;;;22.20;51.10;;;;;;5033185;28;20037;-71
2023/06/06 07:39:13;;;;;;;10.73;4.35;;;22.40;51.00;;;;;;5034814;28;20029;-71
2023/06/06 07:41:40;;;;;;;9.63;4.75;;;22.40;50.70;;;;;;5036134;28;20333;-71
2023/06/06 07:44:06;;;;;;;8.48;4.30;;;22.50;50.70;;;;;;5035043;28;20041;-71
2023/06/06 07:46:32;;;;;;;8.85;4.70;;;22.60;51.20;;;;;;5030801;28;20021;-69
2023/06/06 07:49:00;;;;;;;9.38;4.13;;;22.70;50.30;;;;;;5035118;28;20059;-69
2023/06/06 07:51:26;;;;;;;8.40;3.95;;;22.80;50.00;;;;;;5030884;28;20033;-68
2023/06/06 07:53:52;;;;;;;9.20;4.25;;;22.90;50.10;;;;;;5035717;28;20056;-68
2023/06/06 07:56:18;;;;;;;10.10;4.38;;;23.00;49.70;;;;;;5033414;28;20063;-68
2023/06/06 07:58:51;;;;;;;9.07;4.20;;;23.10;49.70;;;;;;5034673;28;20453;-69
2023/06/06 08:01:23;;;;;;;9.48;4.47;;;23.20;49.50;;;;;;5033297;28;20022;-68
2023/06/06 08:03:50;;;;;;;10.93;4.05;;;23.30;49.40;;;;;;5034390;28;20132;-68
2023/06/06 08:06:20;;;;;;;10.90;4.53;;;23.40;49.10;;;;;;5033543;28;20092;-68
2023/06/06 08:08:48;;;;;;;9.90;4.68;;;23.50;49.00;;;;;;5021730;28;20056;-69
2023/06/06 08:11:16;;;;;;;10.27;4.75;;;23.50;49.00;;;;;;5034463;28;20147;-68
2023/06/06 08:13:42;;;;;;;7.75;4.47;;;23.60;48.80;;;;;;5049341;28;20037;-69
2023/06/06 08:16:08;;;;;;;8.45;3.47;;;23.60;48.60;;;;;;5034787;28;20079;-69
2023/06/06 08:18:35;;;;;;;7.05;4.00;;;23.70;48.60;;;;;;5026259;28;20170;-69
2023/06/06 08:21:01;;;;;;;9.38;4.18;;;23.90;48.50;;;;;;5017485;28;20029;-68
2023/06/06 08:23:27;;;;;;;12.70;4.75;;;24.00;48.40;;;;;;5015592;28;20021;-68
2023/06/06 08:25:55;;;;;;;7.18;4.03;;;24.10;48.20;;;;;;5031439;28;20171;-69
2023/06/06 08:28:28;;;;;;;8.55;4.25;;;24.20;48.00;;;;;;5029269;28;20033;-69
2023/06/06 08:30:54;;;;;;;8.52;3.88;;;24.20;47.80;;;;;;5034645;28;20438;-69
2023/06/06 08:33:19;;;;;;;8.85;3.65;;;24.30;47.70;;;;;;5033106;28;20037;-69
2023/06/06 08:35:46;;;;;;;7.65;4.38;;;24.40;47.70;;;;;;5028592;28;20128;-68
2023/06/06 08:38:12;;;;;;;10.40;3.90;;;24.50;47.50;;;;;;5033960;28;20137;-68
2023/06/06 08:40:39;;;;;;;9.82;4.72;;;24.50;47.40;;;;;;5013624;28;20049;-70
2023/06/06 08:43:10;;;;;;;8.07;3.88;;;24.60;47.30;;;;;;5032195;28;20032;-70
2023/06/06 08:45:40;;;;;;;7.18;3.65;;;24.70;47.20;;;;;;5025031;28;20067;-71
2023/06/06 08:48:07;;;;;;;8.77;4.57;;;24.80;47.20;;;;;;5031237;28;20454;-71
2023/06/06 08:50:35;;;;;;;8.70;4.53;;;24.90;46.90;;;;;;5026110;28;20049;-70
2023/06/06 08:53:04;;;;;;;9.60;4.25;;;25.10;46.80;;;;;;5035044;28;20143;-71
2023/06/06 08:55:36;;;;;;;9.40;3.83;;;25.10;46.60;;;;;;5031704;28;20029;-71
2023/06/06 08:58:03;;;;;;;9.05;4.70;;;25.20;46.40;;;;;;5027974;28;20105;-71
2023/06/06 09:00:29;;;;;;;7.40;3.70;;;25.30;46.30;;;;;;5030909;28;20022;-71
2023/06/06 09:02:56;;;;;;;8.32;4.00;;;25.40;46.10;;;;;;5026429;28;20093;-71
2023/06/06 09:05:21;;;;;;;8.43;4.20;;;25.50;46.00;;;;;;5032398;28;20035;-70
2023/06/06 09:07:49;;;;;;;8.43;4.35;;;25.50;45.80;;;;;;5033510;28;20037;-70
2023/06/06 09:10:16;;;;;;;8.70;3.58;;;25.60;45.60;;;;;;5031865;28;20044;-70
2023/06/06 09:12:43;;;;;;;9.63;3.80;;;25.60;45.70;;;;;;5028571;28;20025;-70
2023/06/06 09:15:10;;;;;;;7.30;3.70;;;25.70;45.70;;;;;;5033474;28;20029;-70
2023/06/06 09:17:40;;;;;;;7.43;3.67;;;25.80;45.70;;;;;;5033155;28;20171;-70
2023/06/06 09:20:11;;;;;;;11.23;4.00;;;25.90;45.50;;;;;;5031919;28;20454;-72
2023/06/06 09:22:40;;;;;;;8.00;4.03;;;26.00;45.10;;;;;;5022311;28;20043;-70
2023/06/06 09:25:16;;;;;;;10.05;3.75;;;26.00;45.30;;;;;;5032746;28;20105;-70
2023/06/06 09:27:42;;;;;;;9.45;3.47;;;26.20;45.00;;;;;;5029803;28;20029;-70
2023/06/06 09:30:21;;;;;;;8.55;3.50;;;26.30;44.90;;;;;;5009229;28;20084;-70
2023/06/06 09:32:52;;;;;;;7.63;3.30;;;26.40;44.70;;;;;;5031182;28;20080;-70
2023/06/06 09:35:18;;;;;;;6.78;3.20;;;26.50;44.40;;;;;;5033546;28;20140;-71
2023/06/06 09:37:45;;;;;;;6.22;3.25;;;26.60;44.60;;;;;;5023165;28;20454;-70
2023/06/06 09:40:14;;;;;;;7.93;3.00;;;26.60;44.40;;;;;;5033132;28;20128;-70
2023/06/06 09:42:48;;;;;;;8.63;3.60;;;26.60;44.50;;;;;;5029069;28;20124;-70
2023/06/06 09:45:15;;;;;;;6.68;3.33;;;26.70;44.20;;;;;;5020685;28;20046;-70
2023/06/06 09:47:42;;;;;;;6.68;3.38;;;26.90;44.40;;;;;;5017504;28;20029;-71
2023/06/06 09:50:10;;;;;;;8.40;3.47;;;27.00;44.20;;;;;;5027354;28;20385;-71
2023/06/06 09:52:36;;;;;;;7.50;3.22;;;27.00;43.90;;;;;;5028111;28;20045;-72
2023/06/06 09:55:09;;;;;;;6.00;2.42;;;27.10;44.00;;;;;;5021614;28;20053;-71
2023/06/06 09:57:36;;;;;;;5.90;3.00;;;27.10;44.00;;;;;;5022039;28;20037;-71
2023/06/06 10:00:14;;;;;;;7.15;3.10;;;27.20;43.80;;;;;;5032752;28;20030;-71
2023/06/06 10:02:47;;;;;;;7.85;3.13;;;27.30;43.70;;;;;;5021781;28;20056;-71
2023/06/06 10:05:18;;;;;;;7.82;3.15;;;27.40;43.60;;;;;;4997352;28;20058;-70
2023/06/06 10:07:45;;;;;;;7.30;3.13;;;27.40;43.40;;;;;;5030318;28;20029;-70
2023/06/06 10:10:20;;;;;;;8.50;3.55;;;27.50;43.30;;;;;;5032928;28;20033;-70
2023/06/06 10:12:48;;;;;;;6.82;3.22;;;27.50;43.30;;;;;;5034019;28;20355;-70
2023/06/06 10:15:15;;;;;;;7.55;2.80;;;27.50;43.40;;;;;;5034021;28;20064;-71
2023/06/06 10:17:42;;;;;;;6.70;3.47;;;27.60;43.40;;;;;;5035474;28;20060;-70
2023/06/06 10:20:11;;;;;;;5.85;3.05;;;27.60;43.10;;;;;;5031463;28;20061;-71
2023/06/06 10:22:37;;;;;;;6.97;3.10;;;27.60;42.90;;;;;;5038147;28;20026;-71
2023/06/06 10:25:06;;;;;;;6.10;2.85;;;27.60;43.00;;;;;;5038172;28;20355;-71
2023/06/06 10:27:42;;;;;;;7.60;3.20;;;27.60;43.00;;;;;;5037127;28;20032;-71
2023/06/06 10:30:43;;;;;;;9.00;3.38;;;27.70;43.10;;;;;;5035855;28;20176;-71
2023/06/06 10:33:34;;;;;;;8.05;3.17;;;27.70;43.00;;;;;;5029288;28;20022;-71
2023/06/06 10:36:07;;;;;;;8.30;3.05;;;27.80;43.10;;;;;;5037537;28;20091;-71
2023/06/06 10:38:35;;;;;;;6.78;3.22;;;27.90;42.90;;;;;;5036639;28;20395;-71
2023/06/06 10:41:01;;;;;;;7.15;3.33;;;27.90;42.70;;;;;;5033497;28;20057;-71
2023/06/06 10:43:32;;;;;;;7.65;3.30;;;27.80;42.60;;;;;;5030307;28;20330;-71
2023/06/06 10:45:59;;;;;;;7.45;3.75;;;27.90;42.80;;;;;;5036421;28;20033;-71
2023/06/06 10:48:48;;;;;;;7.07;3.42;;;27.90;42.60;;;;;;5037676;28;20135;-70
2023/06/06 10:51:23;;;;;;;8.50;3.58;;;27.90;42.60;;;;;;5032803;28;20068;-71
2023/06/06 10:54:14;;;;;;;8.43;3.50;;;28.00;42.50;;;;;;5037748;28;20128;-71
2023/06/06 10:56:54;;;;;;;6.50;3.13;;;27.90;42.40;;;;;;5019990;28;20060;-71
2023/06/06 10:59:27;;;;;;;7.97;3.60;;;27.80;42.70;;;;;;5037376;28;20120;-70
2023/06/06 11:01:54;;;;;;;7.15;3.47;;;27.90;42.60;;;;;;5035616;28;20373;-71
2023/06/06 11:04:29;;;;;;;7.10;3.40;;;27.90;42.50;;;;;;5036166;28;20320;-70
2023/06/06 11:07:00;;;;;;;8.57;3.70;;;27.90;42.40;;;;;;5019711;28;20049;-71
2023/06/06 11:09:29;;;;;;;;;;;27.90;42.30;;;;;;5036530;28;20040;-70
2023/06/06 11:12:13;;;;;;;5.90;2.85;;;27.90;42.40;;;;;;5040113;28;20285;-71
2023/06/06 11:14:55;;;;;;;7.90;3.28;;;28.00;42.60;;;;;;5023837;28;20179;-71
2023/06/06 11:17:24;;;;;;;6.47;2.95;;;28.10;42.40;;;;;;5037040;28;20112;-71
2023/06/06 11:19:51;;;;;;;7.20;3.17;;;28.10;42.50;;;;;;5035502;28;20065;-71
2023/06/06 11:22:25;;;;;;;8.55;3.50;;;28.10;42.50;;;;;;5035143;28;20029;-70
2023/06/06 11:24:55;;;;;;;6.55;3.30;;;28.30;43.00;;;;;;5035715;28;20018;-71
2023/06/06 11:27:21;;;;;;;7.95;3.60;;;28.30;42.30;;;;;;5035536;28;20052;-71
2023/06/06 11:29:47;;;;;;;7.20;3.38;;;28.40;42.40;;;;;;5035029;28;20044;-71
2023/06/06 11:32:14;;;;;;;6.72;3.22;;;28.40;42.30;;;;;;5034718;28;20025;-71
2023/06/06 11:34:41;;;;;;;7.40;2.83;;;28.50;42.20;;;;;;5035291;28;20056;-71
2023/06/06 11:37:08;;;;;;;7.40;3.03;;;28.50;42.00;;;;;;5035443;28;20030;-71
2023/06/06 11:39:35;;;;;;;10.68;3.85;;;28.50;41.80;;;;;;5035296;28;20025;-70
2023/06/06 11:42:01;;;;;;;6.97;3.00;;;28.50;41.90;;;;;;5028323;28;20470;-71
2023/06/06 11:44:32;;;;;;;9.35;3.30;;;28.50;41.90;;;;;;5035772;28;20338;-71
2023/06/06 11:47:02;;;;;;;7.50;3.20;;;28.40;41.90;;;;;;5018822;28;20419;-71
2023/06/06 11:49:28;;;;;;;8.30;3.50;;;28.40;42.00;;;;;;5035193;28;20033;-71
2023/06/06 11:51:55;;;;;;;7.07;3.50;;;28.40;41.80;;;;;;5026887;28;20112;-71
2023/06/06 11:54:22;;;;;;;7.43;3.60;;;28.30;41.70;;;;;;5018846;28;20084;-71
2023/06/06 11:56:52;;;;;;;7.43;3.10;;;28.20;41.90;;;;;;5032831;28;20383;-71
2023/06/06 11:59:19;;;;;;;10.13;3.22;;;28.20;42.10;;;;;;5029366;28;20037;-71
2023/06/06 12:01:58;;;;;;;7.57;3.47;;;28.20;42.10;;;;;;5033781;28;20032;-71
2023/06/06 12:04:25;;;;;;;6.60;2.97;;;28.10;42.10;;;;;;5034820;28;20045;-71
2023/06/06 12:06:57;;;;;;;6.55;3.13;;;28.10;41.90;;;;;;5036112;28;20155;-71
2023/06/06 12:09:24;;;;;;;6.47;3.15;;;28.00;41.80;;;;;;5036343;28;20108;-71
2023/06/06 12:11:52;;;;;;;6.32;3.17;;;28.00;41.80;;;;;;5034083;28;20036;-72
2023/06/06 12:14:25;;;;;;;6.55;3.30;;;27.90;41.70;;;;;;5035628;28;20091;-72
2023/06/06 12:16:51;;;;;;;9.10;3.08;;;27.80;41.60;;;;;;5035022;28;20038;-71
2023/06/06 12:19:18;;;;;;;7.38;3.10;;;27.70;41.80;;;;;;5035727;28;20035;-71
2023/06/06 12:21:49;;;;;;;8.73;3.10;;;27.70;42.10;;;;;;5034202;28;20425;-71
2023/06/06 12:24:22;;;;;;;6.85;3.38;;;27.60;42.50;;;;;;5035883;28;20447;-72
2023/06/06 12:26:57;;;;;;;6.15;2.92;;;27.60;42.70;;;;;;5035966;28;20148;-71
2023/06/06 12:29:26;;;;;;;9.00;3.88;;;27.60;42.70;;;;;;5034774;28;20358;-71
2023/06/06 12:32:12;;;;;;;7.53;3.30;;;27.60;42.60;;;;;;5033842;28;20074;-71
2023/06/06 12:35:05;;;;;;;7.53;3.55;;;27.60;42.70;;;;;;5034227;28;20041;-71
2023/06/06 12:37:38;;;;;;;8.30;3.45;;;27.50;42.60;;;;;;5035663;28;20458;-71
2023/06/06 12:40:15;;;;;;;7.18;3.15;;;27.30;42.80;;;;;;5023987;28;20048;-69
2023/06/06 12:42:42;;;;;;;6.28;3.00;;;27.30;43.00;;;;;;5024530;28;20025;-67
2023/06/06 12:45:08;;;;;;;7.78;3.10;;;27.20;42.80;;;;;;5035019;28;20018;-67
2023/06/06 12:47:35;;;;;;;6.97;3.30;;;27.20;42.50;;;;;;5033195;28;20059;-71
2023/06/06 12:50:01;;;;;;;7.47;3.65;;;27.20;42.40;;;;;;5031221;28;20513;-71